sensor_id;sensor_type;location;lat;lon;timestamp;P1;durP1;ratioP1;P2;durP2;ratioP2
65033;SDS011;51601;51.356;12.458;2023-04-15T00:02:52;12.07;;;5.67;;
65033;SDS011;51601;51.356;12.458;2023-04-15T00:07:17;11.75;;;5.60;;
65033;SDS011;51601;51.356;12.458;2023-04-15T00:11:41;11.48;;;5.22;;
65033;SDS011;51601;51.356;12.458;2023-04-15T00:16:05;11.63;;;5.60;;
65033;SDS011;51601;51.356;12.458;2023-04-15T00:20:31;9.77;;;4.40;;
65033;SDS011;51601;51.356;12.458;2023-04-15T00:24:55;9.30;;;4.32;;
65033;SDS011;51601;51.356;12.458;2023-04-15T00:29:19;9.07;;;4.10;;
65033;SDS011;51601;51.356;12.458;2023-04-15T00:33:43;8.00;;;3.65;;
65033;SDS011;51601;51.356;12.458;2023-04-15T00:38:08;9.65;;;4.20;;
65033;SDS011;51601;51.356;12.458;2023-04-15T00:42:33;8.77;;;4.38;;
65033;SDS011;51601;51.356;12.458;2023-04-15T00:46:59;9.43;;;4.77;;
65033;SDS011;51601;51.356;12.458;2023-04-15T00:51:23;9.05;;;4.10;;
65033;SDS011;51601;51.356;12.458;2023-04-15T00:55:49;8.77;;;3.97;;
65033;SDS011;51601;51.356;12.458;2023-04-15T01:00:14;9.30;;;4.30;;
65033;SDS011;51601;51.356;12.458;2023-04-15T01:04:40;11.10;;;4.85;;
65033;SDS011;51601;51.356;12.458;2023-04-15T01:09:08;11.00;;;5.22;;
65033;SDS011;51601;51.356;12.458;2023-04-15T01:13:35;11.70;;;5.43;;
65033;SDS011;51601;51.356;12.458;2023-04-15T01:18:01;11.80;;;5.63;;
65033;SDS011;51601;51.356;12.458;2023-04-15T01:22:28;12.15;;;5.50;;
65033;SDS011;51601;51.356;12.458;2023-04-15T01:26:57;9.50;;;4.10;;
65033;SDS011;51601;51.356;12.458;2023-04-15T01:31:23;8.93;;;4.30;;
65033;SDS011;51601;51.356;12.458;2023-04-15T01:35:51;9.57;;;4.53;;
65033;SDS011;51601;51.356;12.458;2023-04-15T01:40:22;8.63;;;4.30;;
65033;SDS011;51601;51.356;12.458;2023-04-15T01:44:49;10.70;;;4.63;;
65033;SDS011;51601;51.356;12.458;2023-04-15T01:49:14;10.73;;;4.50;;
65033;SDS011;51601;51.356;12.458;2023-04-15T01:53:40;10.63;;;4.43;;
65033;SDS011;51601;51.356;12.458;2023-04-15T01:58:04;11.90;;;4.70;;
65033;SDS011;51601;51.356;12.458;2023-04-15T02:02:30;10.30;;;4.32;;
65033;SDS011;51601;51.356;12.458;2023-04-15T02:06:58;11.65;;;5.10;;
65033;SDS011;51601;51.356;12.458;2023-04-15T02:11:22;10.90;;;5.47;;
65033;SDS011;51601;51.356;12.458;2023-04-15T02:15:47;11.10;;;5.00;;
65033;SDS011;51601;51.356;12.458;2023-04-15T02:20:18;10.98;;;4.90;;
65033;SDS011;51601;51.356;12.458;2023-04-15T02:24:46;10.90;;;4.70;;
65033;SDS011;51601;51.356;12.458;2023-04-15T02:29:12;12.77;;;5.60;;
65033;SDS011;51601;51.356;12.458;2023-04-15T02:33:39;10.25;;;4.43;;
65033;SDS011;51601;51.356;12.458;2023-04-15T02:38:05;10.35;;;4.13;;
65033;SDS011;51601;51.356;12.458;2023-04-15T02:42:32;11.03;;;4.70;;
65033;SDS011;51601;51.356;12.458;2023-04-15T02:46:57;11.25;;;4.43;;
65033;SDS011;51601;51.356;12.458;2023-04-15T02:51:22;10.13;;;4.32;;
65033;SDS011;51601;51.356;12.458;2023-04-15T02:55:47;11.13;;;4.65;;
65033;SDS011;51601;51.356;12.458;2023-04-15T03:00:20;9.73;;;3.87;;
65033;SDS011;51601;51.356;12.458;2023-04-15T03:04:47;8.80;;;3.80;;
65033;SDS011;51601;51.356;12.458;2023-04-15T03:09:11;8.70;;;3.47;;
65033;SDS011;51601;51.356;12.458;2023-04-15T03:13:38;8.63;;;3.40;;
65033;SDS011;51601;51.356;12.458;2023-04-15T03:18:19;7.93;;;3.15;;
65033;SDS011;51601;51.356;12.458;2023-04-15T03:22:43;7.78;;;3.10;;
65033;SDS011;51601;51.356;12.458;2023-04-15T03:27:10;8.07;;;3.20;;
65033;SDS011;51601;51.356;12.458;2023-04-15T03:31:38;9.65;;;3.80;;
65033;SDS011;51601;51.356;12.458;2023-04-15T03:36:03;8.07;;;3.58;;
65033;SDS011;51601;51.356;12.458;2023-04-15T03:40:33;8.73;;;3.90;;
65033;SDS011;51601;51.356;12.458;2023-04-15T03:44:57;8.97;;;3.50;;
65033;SDS011;51601;51.356;12.458;2023-04-15T03:49:23;9.10;;;4.05;;
65033;SDS011;51601;51.356;12.458;2023-04-15T03:53:50;8.85;;;3.97;;
65033;SDS011;51601;51.356;12.458;2023-04-15T03:58:31;9.37;;;4.07;;
65033;SDS011;51601;51.356;12.458;2023-04-15T04:02:55;9.50;;;4.38;;
65033;SDS011;51601;51.356;12.458;2023-04-15T04:07:25;8.93;;;3.70;;
65033;SDS011;51601;51.356;12.458;2023-04-15T04:11:49;8.90;;;4.00;;
65033;SDS011;51601;51.356;12.458;2023-04-15T04:16:15;9.45;;;4.43;;
65033;SDS011;51601;51.356;12.458;2023-04-15T04:20:39;9.00;;;4.00;;
65033;SDS011;51601;51.356;12.458;2023-04-15T04:25:09;9.02;;;3.83;;
65033;SDS011;51601;51.356;12.458;2023-04-15T04:29:36;8.17;;;3.40;;
65033;SDS011;51601;51.356;12.458;2023-04-15T04:34:05;9.07;;;4.20;;
65033;SDS011;51601;51.356;12.458;2023-04-15T04:38:34;7.95;;;3.38;;
65033;SDS011;51601;51.356;12.458;2023-04-15T04:43:04;9.20;;;3.47;;
65033;SDS011;51601;51.356;12.458;2023-04-15T04:47:28;9.27;;;3.88;;
65033;SDS011;51601;51.356;12.458;2023-04-15T04:51:52;9.10;;;3.67;;
65033;SDS011;51601;51.356;12.458;2023-04-15T04:56:16;9.27;;;3.83;;
65033;SDS011;51601;51.356;12.458;2023-04-15T05:00:41;8.52;;;3.92;;
65033;SDS011;51601;51.356;12.458;2023-04-15T05:05:05;9.55;;;4.28;;
65033;SDS011;51601;51.356;12.458;2023-04-15T05:09:30;11.10;;;5.22;;
65033;SDS011;51601;51.356;12.458;2023-04-15T05:13:57;10.13;;;4.17;;
65033;SDS011;51601;51.356;12.458;2023-04-15T05:18:24;11.13;;;4.90;;
65033;SDS011;51601;51.356;12.458;2023-04-15T05:22:48;11.43;;;4.97;;
65033;SDS011;51601;51.356;12.458;2023-04-15T05:27:12;11.83;;;5.70;;
65033;SDS011;51601;51.356;12.458;2023-04-15T05:31:36;12.35;;;5.65;;
65033;SDS011;51601;51.356;12.458;2023-04-15T05:36:01;12.52;;;5.90;;
65033;SDS011;51601;51.356;12.458;2023-04-15T05:40:26;12.30;;;5.73;;
65033;SDS011;51601;51.356;12.458;2023-04-15T05:44:50;12.57;;;5.50;;
65033;SDS011;51601;51.356;12.458;2023-04-15T05:49:14;12.10;;;5.57;;
65033;SDS011;51601;51.356;12.458;2023-04-15T05:53:39;11.60;;;5.07;;
65033;SDS011;51601;51.356;12.458;2023-04-15T05:58:03;12.87;;;5.90;;
65033;SDS011;51601;51.356;12.458;2023-04-15T06:02:27;12.05;;;5.75;;
65033;SDS011;51601;51.356;12.458;2023-04-15T06:06:51;13.13;;;5.65;;
65033;SDS011;51601;51.356;12.458;2023-04-15T06:11:18;12.60;;;5.70;;
65033;SDS011;51601;51.356;12.458;2023-04-15T06:15:43;13.00;;;5.63;;
65033;SDS011;51601;51.356;12.458;2023-04-15T06:20:10;11.98;;;5.20;;
65033;SDS011;51601;51.356;12.458;2023-04-15T06:24:35;13.03;;;5.70;;
65033;SDS011;51601;51.356;12.458;2023-04-15T06:29:01;11.23;;;5.20;;
65033;SDS011;51601;51.356;12.458;2023-04-15T06:33:25;12.27;;;5.95;;
65033;SDS011;51601;51.356;12.458;2023-04-15T06:37:56;12.07;;;5.28;;
65033;SDS011;51601;51.356;12.458;2023-04-15T06:42:23;12.33;;;5.80;;
65033;SDS011;51601;51.356;12.458;2023-04-15T06:46:49;11.98;;;5.10;;
65033;SDS011;51601;51.356;12.458;2023-04-15T06:51:13;11.45;;;5.38;;
65033;SDS011;51601;51.356;12.458;2023-04-15T06:55:36;13.37;;;6.30;;
65033;SDS011;51601;51.356;12.458;2023-04-15T07:00:01;13.93;;;6.22;;
65033;SDS011;51601;51.356;12.458;2023-04-15T07:04:28;14.45;;;6.50;;
65033;SDS011;51601;51.356;12.458;2023-04-15T07:08:52;14.27;;;6.30;;
65033;SDS011;51601;51.356;12.458;2023-04-15T07:13:16;12.80;;;5.38;;
65033;SDS011;51601;51.356;12.458;2023-04-15T07:17:40;12.23;;;5.43;;
65033;SDS011;51601;51.356;12.458;2023-04-15T07:22:06;13.70;;;5.75;;
65033;SDS011;51601;51.356;12.458;2023-04-15T07:26:30;12.00;;;5.33;;
65033;SDS011;51601;51.356;12.458;2023-04-15T07:30:54;12.35;;;5.38;;
65033;SDS011;51601;51.356;12.458;2023-04-15T07:35:18;12.15;;;5.20;;
65033;SDS011;51601;51.356;12.458;2023-04-15T07:39:44;14.27;;;6.10;;
65033;SDS011;51601;51.356;12.458;2023-04-15T07:44:08;11.55;;;5.28;;
65033;SDS011;51601;51.356;12.458;2023-04-15T07:48:32;14.18;;;5.65;;
65033;SDS011;51601;51.356;12.458;2023-04-15T07:52:57;12.70;;;5.77;;
65033;SDS011;51601;51.356;12.458;2023-04-15T07:57:23;12.25;;;5.70;;
65033;SDS011;51601;51.356;12.458;2023-04-15T08:01:47;13.88;;;6.47;;
65033;SDS011;51601;51.356;12.458;2023-04-15T08:06:11;12.77;;;5.65;;
65033;SDS011;51601;51.356;12.458;2023-04-15T08:10:36;16.93;;;5.80;;
65033;SDS011;51601;51.356;12.458;2023-04-15T08:15:01;13.98;;;5.97;;
65033;SDS011;51601;51.356;12.458;2023-04-15T08:19:26;14.07;;;6.18;;
65033;SDS011;51601;51.356;12.458;2023-04-15T08:23:50;12.97;;;5.63;;
65033;SDS011;51601;51.356;12.458;2023-04-15T08:28:15;12.95;;;5.70;;
65033;SDS011;51601;51.356;12.458;2023-04-15T08:32:41;13.45;;;5.78;;
65033;SDS011;51601;51.356;12.458;2023-04-15T08:37:07;12.77;;;6.10;;
65033;SDS011;51601;51.356;12.458;2023-04-15T08:41:39;17.23;;;6.78;;
65033;SDS011;51601;51.356;12.458;2023-04-15T08:46:07;14.82;;;6.97;;
65033;SDS011;51601;51.356;12.458;2023-04-15T08:50:34;15.65;;;6.88;;
65033;SDS011;51601;51.356;12.458;2023-04-15T08:54:58;14.57;;;6.70;;
65033;SDS011;51601;51.356;12.458;2023-04-15T08:59:26;15.70;;;7.13;;
65033;SDS011;51601;51.356;12.458;2023-04-15T09:03:51;16.63;;;7.57;;
65033;SDS011;51601;51.356;12.458;2023-04-15T09:08:17;17.33;;;7.80;;
65033;SDS011;51601;51.356;12.458;2023-04-15T09:12:41;18.40;;;8.15;;
65033;SDS011;51601;51.356;12.458;2023-04-15T09:17:07;18.75;;;8.63;;
65033;SDS011;51601;51.356;12.458;2023-04-15T09:21:33;18.33;;;9.27;;
65033;SDS011;51601;51.356;12.458;2023-04-15T09:25:59;20.75;;;9.02;;
65033;SDS011;51601;51.356;12.458;2023-04-15T09:30:24;19.83;;;9.00;;
65033;SDS011;51601;51.356;12.458;2023-04-15T09:34:49;18.67;;;9.00;;
65033;SDS011;51601;51.356;12.458;2023-04-15T09:39:13;18.83;;;8.40;;
65033;SDS011;51601;51.356;12.458;2023-04-15T09:43:39;21.75;;;9.68;;
65033;SDS011;51601;51.356;12.458;2023-04-15T09:48:16;21.85;;;10.45;;
65033;SDS011;51601;51.356;12.458;2023-04-15T09:52:43;25.40;;;12.00;;
65033;SDS011;51601;51.356;12.458;2023-04-15T09:57:07;24.63;;;11.85;;
65033;SDS011;51601;51.356;12.458;2023-04-15T10:01:28;23.23;;;11.02;;
65033;SDS011;51601;51.356;12.458;2023-04-15T10:05:53;26.30;;;13.47;;
65033;SDS011;51601;51.356;12.458;2023-04-15T10:10:18;28.50;;;13.45;;
65033;SDS011;51601;51.356;12.458;2023-04-15T10:14:42;27.13;;;13.30;;
65033;SDS011;51601;51.356;12.458;2023-04-15T10:19:08;31.30;;;14.82;;
65033;SDS011;51601;51.356;12.458;2023-04-15T10:23:33;37.03;;;15.97;;
65033;SDS011;51601;51.356;12.458;2023-04-15T10:27:57;30.63;;;14.80;;
65033;SDS011;51601;51.356;12.458;2023-04-15T10:32:21;31.13;;;14.50;;
65033;SDS011;51601;51.356;12.458;2023-04-15T10:36:48;29.17;;;15.13;;
65033;SDS011;51601;51.356;12.458;2023-04-15T10:41:14;30.13;;;14.38;;
65033;SDS011;51601;51.356;12.458;2023-04-15T10:45:39;33.47;;;16.10;;
65033;SDS011;51601;51.356;12.458;2023-04-15T10:50:07;34.73;;;16.27;;
65033;SDS011;51601;51.356;12.458;2023-04-15T10:54:33;32.90;;;15.55;;
65033;SDS011;51601;51.356;12.458;2023-04-15T10:58:59;31.92;;;15.82;;
65033;SDS011;51601;51.356;12.458;2023-04-15T11:03:33;31.73;;;15.65;;
65033;SDS011;51601;51.356;12.458;2023-04-15T11:08:00;29.50;;;15.63;;
65033;SDS011;51601;51.356;12.458;2023-04-15T11:12:32;30.85;;;14.95;;
65033;SDS011;51601;51.356;12.458;2023-04-15T11:16:57;27.15;;;15.20;;
65033;SDS011;51601;51.356;12.458;2023-04-15T11:21:23;29.67;;;14.57;;
65033;SDS011;51601;51.356;12.458;2023-04-15T11:25:49;27.58;;;13.85;;
65033;SDS011;51601;51.356;12.458;2023-04-15T11:30:27;25.48;;;13.98;;
65033;SDS011;51601;51.356;12.458;2023-04-15T11:34:58;25.60;;;12.70;;
65033;SDS011;51601;51.356;12.458;2023-04-15T11:39:22;23.55;;;13.13;;
65033;SDS011;51601;51.356;12.458;2023-04-15T11:43:46;25.38;;;13.05;;
65033;SDS011;51601;51.356;12.458;2023-04-15T11:48:12;23.08;;;12.60;;
65033;SDS011;51601;51.356;12.458;2023-04-15T11:52:42;22.20;;;11.60;;
65033;SDS011;51601;51.356;12.458;2023-04-15T11:57:15;21.35;;;11.05;;
65033;SDS011;51601;51.356;12.458;2023-04-15T12:01:41;21.13;;;11.45;;
65033;SDS011;51601;51.356;12.458;2023-04-15T12:06:14;23.00;;;11.80;;
65033;SDS011;51601;51.356;12.458;2023-04-15T12:10:42;19.92;;;10.88;;
65033;SDS011;51601;51.356;12.458;2023-04-15T12:15:09;30.20;;;10.85;;
65033;SDS011;51601;51.356;12.458;2023-04-15T12:19:34;18.23;;;10.10;;
65033;SDS011;51601;51.356;12.458;2023-04-15T12:24:07;17.83;;;10.10;;
65033;SDS011;51601;51.356;12.458;2023-04-15T12:28:35;18.50;;;10.38;;
65033;SDS011;51601;51.356;12.458;2023-04-15T12:32:59;17.38;;;9.73;;
65033;SDS011;51601;51.356;12.458;2023-04-15T12:37:34;16.53;;;9.40;;
65033;SDS011;51601;51.356;12.458;2023-04-15T12:42:00;15.70;;;9.05;;
65033;SDS011;51601;51.356;12.458;2023-04-15T12:46:27;16.55;;;9.05;;
65033;SDS011;51601;51.356;12.458;2023-04-15T12:50:51;15.87;;;8.50;;
65033;SDS011;51601;51.356;12.458;2023-04-15T12:55:17;14.95;;;8.82;;
65033;SDS011;51601;51.356;12.458;2023-04-15T12:59:43;15.85;;;8.65;;
65033;SDS011;51601;51.356;12.458;2023-04-15T13:04:06;15.40;;;8.17;;
65033;SDS011;51601;51.356;12.458;2023-04-15T13:08:37;14.18;;;7.82;;
65033;SDS011;51601;51.356;12.458;2023-04-15T13:13:15;14.23;;;7.88;;
65033;SDS011;51601;51.356;12.458;2023-04-15T13:17:42;13.93;;;7.78;;
65033;SDS011;51601;51.356;12.458;2023-04-15T13:22:06;13.90;;;7.47;;
65033;SDS011;51601;51.356;12.458;2023-04-15T13:26:34;15.60;;;8.07;;
65033;SDS011;51601;51.356;12.458;2023-04-15T13:31:01;14.95;;;7.97;;
65033;SDS011;51601;51.356;12.458;2023-04-15T13:35:26;13.93;;;7.53;;
65033;SDS011;51601;51.356;12.458;2023-04-15T13:39:53;14.02;;;8.10;;
65033;SDS011;51601;51.356;12.458;2023-04-15T13:44:22;13.57;;;7.82;;
65033;SDS011;51601;51.356;12.458;2023-04-15T13:48:48;15.00;;;7.53;;
65033;SDS011;51601;51.356;12.458;2023-04-15T13:53:13;14.75;;;7.80;;
65033;SDS011;51601;51.356;12.458;2023-04-15T13:57:38;12.93;;;7.22;;
65033;SDS011;51601;51.356;12.458;2023-04-15T14:02:04;13.02;;;7.50;;
65033;SDS011;51601;51.356;12.458;2023-04-15T14:06:35;12.20;;;6.97;;
65033;SDS011;51601;51.356;12.458;2023-04-15T14:11:06;11.38;;;6.90;;
65033;SDS011;51601;51.356;12.458;2023-04-15T14:15:34;11.93;;;6.57;;
65033;SDS011;51601;51.356;12.458;2023-04-15T14:20:14;11.10;;;6.57;;
65033;SDS011;51601;51.356;12.458;2023-04-15T14:24:39;12.88;;;7.05;;
65033;SDS011;51601;51.356;12.458;2023-04-15T14:29:21;12.05;;;6.68;;
65033;SDS011;51601;51.356;12.458;2023-04-15T14:33:45;13.33;;;7.33;;
65033;SDS011;51601;51.356;12.458;2023-04-15T14:38:14;13.52;;;7.00;;
65033;SDS011;51601;51.356;12.458;2023-04-15T14:42:45;13.43;;;7.53;;
65033;SDS011;51601;51.356;12.458;2023-04-15T14:47:11;13.32;;;7.53;;
65033;SDS011;51601;51.356;12.458;2023-04-15T14:51:39;12.53;;;7.53;;
65033;SDS011;51601;51.356;12.458;2023-04-15T14:56:04;13.32;;;7.53;;
65033;SDS011;51601;51.356;12.458;2023-04-15T15:00:31;13.52;;;7.53;;
65033;SDS011;51601;51.356;12.458;2023-04-15T15:04:56;13.50;;;7.73;;
65033;SDS011;51601;51.356;12.458;2023-04-15T15:09:28;15.07;;;7.38;;
65033;SDS011;51601;51.356;12.458;2023-04-15T15:13:55;13.98;;;7.82;;
65033;SDS011;51601;51.356;12.458;2023-04-15T15:18:22;12.80;;;7.33;;
65033;SDS011;51601;51.356;12.458;2023-04-15T15:22:54;13.52;;;8.25;;
65033;SDS011;51601;51.356;12.458;2023-04-15T15:27:25;16.15;;;8.70;;
65033;SDS011;51601;51.356;12.458;2023-04-15T15:31:49;15.07;;;8.15;;
65033;SDS011;51601;51.356;12.458;2023-04-15T15:36:06;14.30;;;8.43;;
65033;SDS011;51601;51.356;12.458;2023-04-15T15:40:34;13.88;;;7.65;;
65033;SDS011;51601;51.356;12.458;2023-04-15T15:44:59;15.25;;;8.23;;
65033;SDS011;51601;51.356;12.458;2023-04-15T15:49:25;14.77;;;8.13;;
65033;SDS011;51601;51.356;12.458;2023-04-15T15:53:50;13.57;;;8.32;;
65033;SDS011;51601;51.356;12.458;2023-04-15T15:58:16;15.02;;;8.60;;
65033;SDS011;51601;51.356;12.458;2023-04-15T16:02:40;16.27;;;8.77;;
65033;SDS011;51601;51.356;12.458;2023-04-15T16:07:08;14.35;;;8.48;;
65033;SDS011;51601;51.356;12.458;2023-04-15T16:11:32;14.23;;;8.13;;
65033;SDS011;51601;51.356;12.458;2023-04-15T16:15:58;17.08;;;9.55;;
65033;SDS011;51601;51.356;12.458;2023-04-15T16:20:29;16.37;;;8.93;;
65033;SDS011;51601;51.356;12.458;2023-04-15T16:24:54;16.08;;;9.15;;
65033;SDS011;51601;51.356;12.458;2023-04-15T16:29:21;16.88;;;9.60;;
65033;SDS011;51601;51.356;12.458;2023-04-15T16:33:50;16.30;;;9.77;;
65033;SDS011;51601;51.356;12.458;2023-04-15T16:38:20;16.98;;;9.02;;
65033;SDS011;51601;51.356;12.458;2023-04-15T16:42:40;16.42;;;9.63;;
65033;SDS011;51601;51.356;12.458;2023-04-15T16:47:04;15.87;;;9.20;;
65033;SDS011;51601;51.356;12.458;2023-04-15T16:51:32;15.57;;;8.98;;
65033;SDS011;51601;51.356;12.458;2023-04-15T16:55:56;16.73;;;9.43;;
65033;SDS011;51601;51.356;12.458;2023-04-15T17:00:20;17.90;;;9.90;;
65033;SDS011;51601;51.356;12.458;2023-04-15T17:04:44;17.00;;;10.00;;
65033;SDS011;51601;51.356;12.458;2023-04-15T17:09:09;16.88;;;9.32;;
65033;SDS011;51601;51.356;12.458;2023-04-15T17:13:33;16.48;;;9.07;;
65033;SDS011;51601;51.356;12.458;2023-04-15T17:17:58;18.50;;;9.63;;
65033;SDS011;51601;51.356;12.458;2023-04-15T17:22:25;18.90;;;9.73;;
65033;SDS011;51601;51.356;12.458;2023-04-15T17:26:51;18.30;;;10.00;;
65033;SDS011;51601;51.356;12.458;2023-04-15T17:31:15;16.63;;;9.33;;
65033;SDS011;51601;51.356;12.458;2023-04-15T17:35:40;19.40;;;10.27;;
65033;SDS011;51601;51.356;12.458;2023-04-15T17:40:04;18.23;;;9.93;;
65033;SDS011;51601;51.356;12.458;2023-04-15T17:44:36;18.48;;;9.93;;
65033;SDS011;51601;51.356;12.458;2023-04-15T17:49:00;15.70;;;8.83;;
65033;SDS011;51601;51.356;12.458;2023-04-15T17:53:40;17.83;;;10.20;;
65033;SDS011;51601;51.356;12.458;2023-04-15T17:58:07;19.27;;;10.50;;
65033;SDS011;51601;51.356;12.458;2023-04-15T18:02:37;20.03;;;11.33;;
65033;SDS011;51601;51.356;12.458;2023-04-15T18:07:01;24.15;;;13.20;;
65033;SDS011;51601;51.356;12.458;2023-04-15T18:11:27;24.50;;;13.43;;
65033;SDS011;51601;51.356;12.458;2023-04-15T18:15:51;21.67;;;11.63;;
65033;SDS011;51601;51.356;12.458;2023-04-15T18:20:20;21.85;;;11.23;;
65033;SDS011;51601;51.356;12.458;2023-04-15T18:24:45;21.60;;;11.75;;
65033;SDS011;51601;51.356;12.458;2023-04-15T18:29:12;20.20;;;10.65;;
65033;SDS011;51601;51.356;12.458;2023-04-15T18:33:45;20.90;;;10.43;;
65033;SDS011;51601;51.356;12.458;2023-04-15T18:38:08;20.92;;;10.07;;
65033;SDS011;51601;51.356;12.458;2023-04-15T18:42:41;20.33;;;9.88;;
65033;SDS011;51601;51.356;12.458;2023-04-15T18:47:09;19.90;;;10.93;;
65033;SDS011;51601;51.356;12.458;2023-04-15T18:51:36;23.67;;;11.25;;
65033;SDS011;51601;51.356;12.458;2023-04-15T18:56:04;23.08;;;11.65;;
65033;SDS011;51601;51.356;12.458;2023-04-15T19:00:31;22.53;;;10.90;;
65033;SDS011;51601;51.356;12.458;2023-04-15T19:05:03;22.98;;;11.60;;
65033;SDS011;51601;51.356;12.458;2023-04-15T19:09:35;26.95;;;12.25;;
65033;SDS011;51601;51.356;12.458;2023-04-15T19:14:05;23.90;;;11.45;;
65033;SDS011;51601;51.356;12.458;2023-04-15T19:18:31;25.23;;;12.03;;
65033;SDS011;51601;51.356;12.458;2023-04-15T19:23:02;23.90;;;12.32;;
65033;SDS011;51601;51.356;12.458;2023-04-15T19:27:27;23.33;;;11.93;;
65033;SDS011;51601;51.356;12.458;2023-04-15T19:31:46;24.20;;;11.90;;
65033;SDS011;51601;51.356;12.458;2023-04-15T19:36:11;24.65;;;12.13;;
65033;SDS011;51601;51.356;12.458;2023-04-15T19:40:35;22.92;;;11.45;;
65033;SDS011;51601;51.356;12.458;2023-04-15T19:44:59;25.80;;;12.27;;
65033;SDS011;51601;51.356;12.458;2023-04-15T19:49:25;23.63;;;11.80;;
65033;SDS011;51601;51.356;12.458;2023-04-15T19:53:52;25.30;;;12.85;;
65033;SDS011;51601;51.356;12.458;2023-04-15T19:58:18;24.02;;;12.82;;
65033;SDS011;51601;51.356;12.458;2023-04-15T20:02:42;29.10;;;14.57;;
65033;SDS011;51601;51.356;12.458;2023-04-15T20:07:07;31.88;;;15.80;;
65033;SDS011;51601;51.356;12.458;2023-04-15T20:11:31;34.70;;;16.13;;
65033;SDS011;51601;51.356;12.458;2023-04-15T20:16:15;29.77;;;15.10;;
65033;SDS011;51601;51.356;12.458;2023-04-15T20:20:39;30.85;;;14.73;;
65033;SDS011;51601;51.356;12.458;2023-04-15T20:25:06;29.83;;;13.93;;
65033;SDS011;51601;51.356;12.458;2023-04-15T20:29:30;27.13;;;13.50;;
65033;SDS011;51601;51.356;12.458;2023-04-15T20:33:54;29.88;;;13.57;;
65033;SDS011;51601;51.356;12.458;2023-04-15T20:38:18;27.58;;;14.07;;
65033;SDS011;51601;51.356;12.458;2023-04-15T20:42:44;30.75;;;14.13;;
65033;SDS011;51601;51.356;12.458;2023-04-15T20:47:08;33.87;;;14.30;;
65033;SDS011;51601;51.356;12.458;2023-04-15T20:51:32;27.92;;;12.93;;
65033;SDS011;51601;51.356;12.458;2023-04-15T20:55:58;27.17;;;13.48;;
65033;SDS011;51601;51.356;12.458;2023-04-15T21:00:24;32.03;;;14.07;;
65033;SDS011;51601;51.356;12.458;2023-04-15T21:04:48;32.38;;;14.25;;
65033;SDS011;51601;51.356;12.458;2023-04-15T21:09:12;33.72;;;14.57;;
65033;SDS011;51601;51.356;12.458;2023-04-15T21:13:36;31.63;;;14.20;;
65033;SDS011;51601;51.356;12.458;2023-04-15T21:18:02;38.03;;;15.82;;
65033;SDS011;51601;51.356;12.458;2023-04-15T21:22:26;36.72;;;14.35;;
65033;SDS011;51601;51.356;12.458;2023-04-15T21:26:50;38.15;;;15.98;;
65033;SDS011;51601;51.356;12.458;2023-04-15T21:31:14;33.90;;;15.27;;
65033;SDS011;51601;51.356;12.458;2023-04-15T21:35:39;37.67;;;15.60;;
65033;SDS011;51601;51.356;12.458;2023-04-15T21:40:04;40.53;;;16.58;;
65033;SDS011;51601;51.356;12.458;2023-04-15T21:44:29;36.37;;;15.93;;
65033;SDS011;51601;51.356;12.458;2023-04-15T21:48:53;38.28;;;15.82;;
65033;SDS011;51601;51.356;12.458;2023-04-15T21:53:19;36.95;;;15.60;;
65033;SDS011;51601;51.356;12.458;2023-04-15T21:57:43;34.80;;;15.20;;
65033;SDS011;51601;51.356;12.458;2023-04-15T22:02:07;36.60;;;15.45;;
65033;SDS011;51601;51.356;12.458;2023-04-15T22:06:31;39.85;;;16.30;;
65033;SDS011;51601;51.356;12.458;2023-04-15T22:10:56;30.13;;;14.25;;
65033;SDS011;51601;51.356;12.458;2023-04-15T22:15:20;36.27;;;16.00;;
65033;SDS011;51601;51.356;12.458;2023-04-15T22:19:44;35.35;;;15.25;;
65033;SDS011;51601;51.356;12.458;2023-04-15T22:24:08;33.42;;;14.73;;
65033;SDS011;51601;51.356;12.458;2023-04-15T22:28:53;32.60;;;13.47;;
65033;SDS011;51601;51.356;12.458;2023-04-15T22:33:17;37.80;;;15.98;;
65033;SDS011;51601;51.356;12.458;2023-04-15T22:37:41;29.58;;;13.45;;
65033;SDS011;51601;51.356;12.458;2023-04-15T22:42:05;41.43;;;15.83;;
65033;SDS011;51601;51.356;12.458;2023-04-15T22:46:30;39.05;;;16.95;;
65033;SDS011;51601;51.356;12.458;2023-04-15T22:50:55;40.13;;;17.08;;
65033;SDS011;51601;51.356;12.458;2023-04-15T22:55:19;43.92;;;16.77;;
65033;SDS011;51601;51.356;12.458;2023-04-15T22:59:43;35.60;;;14.17;;
65033;SDS011;51601;51.356;12.458;2023-04-15T23:04:08;27.77;;;13.10;;
65033;SDS011;51601;51.356;12.458;2023-04-15T23:08:48;28.40;;;13.50;;
65033;SDS011;51601;51.356;12.458;2023-04-15T23:13:12;27.30;;;13.40;;
65033;SDS011;51601;51.356;12.458;2023-04-15T23:17:36;28.83;;;14.43;;
65033;SDS011;51601;51.356;12.458;2023-04-15T23:22:02;33.03;;;15.30;;
65033;SDS011;51601;51.356;12.458;2023-04-15T23:26:28;33.63;;;14.97;;
65033;SDS011;51601;51.356;12.458;2023-04-15T23:30:52;32.42;;;13.68;;
65033;SDS011;51601;51.356;12.458;2023-04-15T23:35:16;33.40;;;13.90;;
65033;SDS011;51601;51.356;12.458;2023-04-15T23:39:42;29.45;;;13.85;;
65033;SDS011;51601;51.356;12.458;2023-04-15T23:44:05;34.80;;;14.33;;
65033;SDS011;51601;51.356;12.458;2023-04-15T23:48:30;32.58;;;15.52;;
65033;SDS011;51601;51.356;12.458;2023-04-15T23:52:54;32.00;;;13.25;;
65033;SDS011;51601;51.356;12.458;2023-04-15T23:57:20;36.57;;;15.33;;
